Time;durP1;ratioP1;P1;durP2;ratioP2;P2;SDS_P1;SDS_P2;PMS_P1;PMS_P2;Temp;Humidity;BMP_temperature;BMP_pressure;BME280_temperature;BME280_humidity;BME280_pressure;Samples;Min_cycle;Max_cycle;Signal;HPM_P1;HPM_P2
2021/07/06 00:02:31;;;;;;;17.30;15.70;;;;;;;24.72;73.18;100074.81;20861343;28;20945;-54
2021/07/06 00:12:31;;;;;;;21.23;19.33;;;;;;;24.75;71.87;100074.41;20875357;28;20308;-52
2021/07/06 00:52:28;;;;;;;19.63;17.93;;;;;;;24.21;72.48;100105.94;20584467;27;8160342;-52
2021/07/06 01:12:37;;;;;;;19.57;17.93;;;;;;;23.90;72.75;100106.19;20574002;27;8297445;-52
2021/07/06 01:42:43;;;;;;;22.33;20.30;;;;;;;23.73;72.53;100116.44;20488918;27;11029814;-52
2021/07/06 02:12:48;;;;;;;20.67;18.67;;;;;;;22.61;78.17;100117.25;20585964;27;8225907;-52
2021/07/06 02:22:50;;;;;;;21.50;19.40;;;;;;;22.05;79.96;100132.03;20889423;28;20233;-64
2021/07/06 02:32:51;;;;;;;23.23;19.20;;;;;;;22.02;79.81;100135.13;20879188;28;20227;-54
2021/07/06 02:42:52;;;;;;;18.07;16.50;;;;;;;22.21;79.24;100153.72;20855943;28;20841;-52
2021/07/06 03:03:11;;;;;;;15.53;14.13;;;;;;;23.84;80.57;100167.75;20492843;28;8282642;-54
2021/07/06 03:23:23;;;;;;;14.23;12.93;;;;;;;28.54;72.13;100189.13;20591086;27;8274825;-54
2021/07/06 03:33:24;;;;;;;13.83;12.73;;;;;;;30.74;70.28;100210.72;20870132;28;20310;-53
2021/07/06 03:43:24;;;;;;;15.67;14.27;;;;;;;30.08;70.98;100203.22;20875234;28;20584;-54
2021/07/06 03:53:25;;;;;;;13.97;12.77;;;;;;;31.99;67.99;100214.25;20860380;28;20219;-53
2021/07/06 04:03:25;;;;;;;15.57;14.30;;;;;;;28.92;71.65;100231.22;20877879;28;20299;-54
2021/07/06 04:13:26;;;;;;;12.67;11.37;;;;;;;32.06;67.21;100236.22;20854979;28;20235;-59
2021/07/06 04:23:26;;;;;;;10.73;9.83;;;;;;;35.16;64.17;100245.97;20957850;28;20223;-53
2021/07/06 04:33:27;;;;;;;11.95;10.85;;;;;;;36.59;62.98;100254.31;20889459;28;20219;-55
2021/07/06 04:43:27;;;;;;;12.18;11.27;;;;;;;38.50;60.53;100259.56;20898673;28;20222;-56
2021/07/06 04:53:28;;;;;;;12.00;10.93;;;;;;;40.15;58.28;100279.44;20888994;28;20247;-55
2021/07/06 05:03:29;;;;;;;11.75;10.93;;;;;;;40.80;57.03;100277.91;20890765;28;20220;-53
2021/07/06 05:13:31;;;;;;;13.20;12.00;;;;;;;37.89;64.47;100279.16;20893771;28;20234;-56
2021/07/06 05:23:31;;;;;;;14.57;13.27;;;;;;;33.58;71.85;100269.75;20880401;28;20217;-56
2021/07/06 05:33:32;;;;;;;14.83;13.73;;;;;;;31.85;70.99;100268.03;20897218;28;20578;-55
2021/07/06 05:43:32;;;;;;;15.53;14.23;;;;;;;30.62;70.85;100275.94;20873578;28;20269;-54
2021/07/06 05:53:33;;;;;;;17.13;15.63;;;;;;;29.84;72.18;100284.72;20896679;28;20250;-54
2021/07/06 06:03:33;;;;;;;16.87;15.37;;;;;;;29.64;71.45;100279.41;20874681;28;20223;-55
2021/07/06 06:13:34;;;;;;;15.37;14.10;;;;;;;29.68;72.20;100280.66;20886730;28;20240;-55
2021/07/06 06:23:34;;;;;;;14.67;13.47;;;;;;;29.71;71.76;100296.69;20882260;28;20967;-55
2021/07/06 06:33:35;;;;;;;16.33;15.07;;;;;;;30.07;72.32;100284.13;20882059;28;20458;-54
2021/07/06 06:43:35;;;;;;;15.70;14.50;;;;;;;30.17;71.74;100289.13;20889800;28;20219;-55
2021/07/06 06:53:49;;;;;;;16.37;15.07;;;;;;;30.36;70.94;100294.41;20873408;28;20227;-58
2021/07/06 07:03:50;;;;;;;14.20;13.10;;;;;;;30.55;70.91;100294.47;20891212;28;20234;-54
2021/07/06 07:13:51;;;;;;;12.87;11.77;;;;;;;30.70;71.13;100292.16;20867405;28;20730;-54
2021/07/06 07:23:51;;;;;;;10.60;9.80;;;;;;;30.13;70.75;100294.22;20890631;28;20222;-54
2021/07/06 07:33:51;;;;;;;9.90;9.20;;;;;;;30.29;70.73;100288.16;20875344;28;20866;-54
2021/07/06 07:43:55;;;;;;;10.87;10.07;;;;;;;30.60;69.75;100294.59;20888525;28;20218;-60
2021/07/06 07:53:55;;;;;;;10.03;9.27;;;;;;;30.75;66.80;100306.09;20876460;28;20811;-54
2021/07/06 08:03:55;;;;;;;9.93;9.10;;;;;;;30.85;68.26;100319.31;20887046;28;20231;-54
2021/07/06 08:13:56;;;;;;;10.10;9.27;;;;;;;31.09;70.72;100324.75;20879423;28;20310;-55
2021/07/06 08:23:59;;;;;;;9.50;8.80;;;;;;;31.49;71.07;100315.91;20886480;28;20231;-54
2021/07/06 08:34:00;;;;;;;9.53;8.73;;;;;;;31.43;70.72;100312.16;20902945;28;20262;-54
2021/07/06 08:44:02;;;;;;;10.87;9.97;;;;;;;31.54;71.62;100320.72;20885153;28;20699;-55
2021/07/06 08:54:02;;;;;;;7.87;7.27;;;;;;;31.57;68.04;100329.38;20901335;28;20581;-54
2021/07/06 09:04:04;;;;;;;7.17;6.27;;;;;;;31.74;65.84;100324.91;20880037;28;20228;-53
2021/07/06 09:14:11;;;;;;;6.10;5.60;;;;;;;31.81;61.24;100324.78;20897017;28;20223;-54
2021/07/06 09:24:22;;;;;;;5.97;5.50;;;;;;;32.18;61.98;100314.41;20885190;28;20308;-55
2021/07/06 09:34:23;;;;;;;5.20;4.90;;;;;;;32.58;67.52;100331.06;20890327;28;20327;-53
2021/07/06 09:44:33;;;;;;;4.13;3.93;;;;;;;32.40;60.93;100334.81;20891216;28;20223;-61
2021/07/06 09:54:36;;;;;;;5.40;5.10;;;;;;;32.48;67.81;100326.13;20880345;28;20230;-55
2021/07/06 10:04:36;;;;;;;4.23;4.03;;;;;;;32.99;69.14;100323.66;20896248;28;20219;-64
2021/07/06 10:14:37;;;;;;;4.30;4.10;;;;;;;32.59;66.00;100327.22;20871132;28;20236;-60
2021/07/06 10:24:46;;;;;;;4.07;3.77;;;;;;;32.79;61.05;100321.31;20894050;28;20312;-55
2021/07/06 10:34:47;;;;;;;4.07;3.87;;;;;;;32.99;65.64;100316.22;20871661;28;20258;-60
2021/07/06 10:44:47;;;;;;;4.18;3.97;;;;;;;32.87;64.63;100301.59;20891554;28;20219;-55
2021/07/06 10:54:48;;;;;;;3.97;3.77;;;;;;;32.87;65.71;100305.19;20876768;28;20223;-59
2021/07/06 11:04:51;;;;;;;3.72;3.53;;;;;;;33.26;66.32;100310.97;20890398;28;20227;-54
2021/07/06 11:14:52;;;;;;;3.38;3.17;;;;;;;33.45;66.14;100314.38;20882262;28;20659;-55
2021/07/06 11:24:52;;;;;;;3.28;3.00;;;;;;;33.70;64.87;100312.03;20876491;28;20227;-60
2021/07/06 11:34:58;;;;;;;3.40;3.20;;;;;;;34.09;60.24;100301.09;20889775;28;20230;-57
2021/07/06 11:44:58;;;;;;;2.72;2.63;;;;;;;33.60;63.85;100300.81;20883072;28;20308;-54
2021/07/06 11:54:59;;;;;;;3.07;2.87;;;;;;;33.60;56.73;100295.25;20905895;28;20612;-53
2021/07/06 12:05:18;;;;;;;4.47;2.47;;;;;;;33.62;45.12;100282.03;20882169;28;20219;-60
2021/07/06 12:15:35;;;;;;;4.82;2.83;;;;;;;33.83;49.39;100273.00;20903441;28;20258;-53
2021/07/06 12:25:36;;;;;;;3.00;2.80;;;;;;;34.37;62.56;100258.59;20885662;28;20224;-53
2021/07/06 12:35:36;;;;;;;2.88;2.70;;;;;;;34.19;60.00;100249.44;20897131;28;20300;-53
2021/07/06 12:45:37;;;;;;;3.00;2.80;;;;;;;34.50;61.50;100253.50;20892133;28;20273;-61
2021/07/06 12:55:38;;;;;;;2.78;2.67;;;;;;;34.60;61.54;100245.31;20886934;28;20227;-54
2021/07/06 13:05:45;;;;;;;3.03;2.83;;;;;;;34.29;52.40;100248.81;20899754;28;20591;-54
2021/07/06 13:15:48;;;;;;;3.30;3.10;;;;;;;34.16;60.64;100246.38;20882701;28;20235;-54
2021/07/06 13:25:49;;;;;;;4.07;3.20;;;;;;;34.20;63.86;100239.19;20897438;28;20563;-54
2021/07/06 13:35:51;;;;;;;2.92;2.63;;;;;;;34.27;62.46;100237.13;20875550;28;20285;-56
2021/07/06 13:45:52;;;;;;;3.17;2.90;;;;;;;34.06;59.33;100226.81;20895811;28;20623;-54
2021/07/06 13:55:53;;;;;;;2.80;2.60;;;;;;;34.45;63.70;100234.03;20885677;28;20223;-55
2021/07/06 14:05:53;;;;;;;2.40;2.30;;;;;;;34.60;62.52;100233.41;20890302;28;20611;-55
2021/07/06 14:16:07;;;;;;;2.25;2.15;;;;;;;34.93;54.22;100249.91;20883471;28;20240;-55
2021/07/06 14:26:07;;;;;;;2.50;2.33;;;;;;;35.43;60.97;100243.22;20888152;28;20219;-55
2021/07/06 14:36:08;;;;;;;2.25;2.05;;;;;;;35.39;60.25;100242.06;20905362;28;20222;-56
2021/07/06 14:46:08;;;;;;;2.22;2.10;;;;;;;35.06;60.76;100229.22;20903744;28;20211;-56
2021/07/06 14:56:09;;;;;;;2.30;2.20;;;;;;;34.62;59.90;100218.19;20901728;28;20216;-56
2021/07/06 15:06:10;;;;;;;2.38;2.17;;;;;;;34.38;58.84;100211.22;20889600;28;20261;-56
2021/07/06 15:16:12;;;;;;;2.20;2.10;;;;;;;34.47;57.58;100203.31;20870779;28;20227;-56
2021/07/06 15:26:13;;;;;;;3.15;2.17;;;;;;;34.40;58.54;100206.28;20891073;28;20218;-55
2021/07/06 15:36:13;;;;;;;1.90;1.80;;;;;;;34.77;57.86;100212.03;20868038;28;20219;-57
2021/07/06 15:46:14;;;;;;;2.00;1.90;;;;;;;34.44;57.33;100212.13;20889157;28;20219;-55
2021/07/06 15:56:14;;;;;;;5.35;2.70;;;;;;;34.65;57.12;100209.38;20869650;28;20223;-57
2021/07/06 16:06:15;;;;;;;1.88;1.85;;;;;;;34.55;57.03;100198.13;20885517;28;20525;-56
2021/07/06 16:16:16;;;;;;;2.35;1.80;;;;;;;34.13;55.76;100210.84;20875910;28;20220;-56
2021/07/06 16:26:17;;;;;;;2.50;2.40;;;;;;;33.69;56.42;100220.97;20890975;28;20610;-56
2021/07/06 16:36:17;;;;;;;2.10;2.00;;;;;;;33.53;58.22;100212.41;20900060;28;20223;-57
2021/07/06 16:46:18;;;;;;;2.00;1.90;;;;;;;33.61;57.35;100209.22;20845370;28;20242;-57
2021/07/06 17:58:25;;;;;;;3.33;3.13;;;;;;;38.15;49.25;100241.81;20807409;28;20252;-57
2021/07/06 18:08:26;;;;;;;3.33;3.13;;;;;;;37.15;50.81;100226.72;20803612;28;20312;-57
2021/07/06 18:18:27;;;;;;;5.53;3.22;;;;;;;35.69;51.30;100235.94;20798577;28;21109;-56
2021/07/06 18:28:27;;;;;;;4.05;3.33;;;;;;;34.32;51.82;100238.03;20849960;28;20223;-57
2021/07/06 18:38:28;;;;;;;4.03;3.72;;;;;;;33.03;52.80;100255.72;20872076;28;20593;-57
2021/07/06 18:48:28;;;;;;;4.00;3.70;;;;;;;31.63;54.70;100256.69;20892365;28;20220;-59
2021/07/06 18:58:29;;;;;;;4.70;3.83;;;;;;;30.48;56.59;100264.19;20867991;28;20230;-56
2021/07/06 19:08:32;;;;;;;4.25;3.95;;;;;;;29.35;58.82;100271.75;20883955;28;20238;-56
2021/07/06 19:18:38;;;;;;;4.43;4.03;;;;;;;28.56;60.84;100274.88;20880499;28;20595;-57
2021/07/06 19:28:53;;;;;;;4.87;4.40;;;;;;;27.89;61.72;100273.31;20890658;28;20302;-57
2021/07/06 19:38:55;;;;;;;4.90;4.50;;;;;;;27.31;63.80;100292.22;20877101;28;20680;-57
2021/07/06 19:48:55;;;;;;;4.83;4.53;;;;;;;27.01;65.66;100290.88;20880859;28;20231;-56
2021/07/06 19:58:56;;;;;;;4.60;4.30;;;;;;;26.57;67.03;100291.31;20902941;28;20636;-61
2021/07/06 20:08:56;;;;;;;4.90;4.60;;;;;;;26.35;67.60;100304.22;20915205;28;20221;-57
2021/07/06 20:18:57;;;;;;;5.23;4.83;;;;;;;26.11;68.16;100306.34;20914713;28;20317;-60
2021/07/06 20:28:58;;;;;;;6.00;5.57;;;;;;;26.12;68.11;100307.22;20915199;28;20227;-57
2021/07/06 20:38:58;;;;;;;5.70;5.20;;;;;;;26.04;68.51;100319.16;20914448;28;20287;-60
2021/07/06 20:59:11;;;;;;;7.37;6.87;;;;;;;25.67;68.59;100311.25;20523320;27;8497316;-55
2021/07/06 21:09:11;;;;;;;7.73;7.13;;;;;;;25.38;69.86;100302.13;20809240;28;20257;-56
2021/07/06 21:19:12;;;;;;;7.00;6.50;;;;;;;25.62;69.24;100305.53;20808595;28;20230;-56
2021/07/06 21:29:12;;;;;;;7.27;6.67;;;;;;;25.60;69.26;100307.59;20807382;28;20231;-57
2021/07/06 21:39:13;;;;;;;6.90;6.40;;;;;;;25.51;69.39;100308.75;20807145;28;20721;-56
2021/07/06 21:49:15;;;;;;;7.53;7.03;;;;;;;25.70;69.40;100305.41;20806116;28;20697;-63
2021/07/06 21:59:15;;;;;;;7.20;6.60;;;;;;;25.70;68.41;100313.63;20885139;28;20227;-58
2021/07/06 22:09:22;;;;;;;7.73;6.90;;;;;;;25.78;66.80;100318.94;20761047;28;20290;-57
2021/07/06 22:19:22;;;;;;;7.20;6.70;;;;;;;25.51;69.01;100309.59;20761767;28;20282;-57
2021/07/06 22:29:23;;;;;;;8.17;7.50;;;;;;;25.38;69.22;100304.84;20750343;28;20241;-57
2021/07/06 22:49:34;;;;;;;9.37;8.67;;;;;;;25.48;67.90;100316.31;20619403;27;8294700;-55
2021/07/06 22:59:35;;;;;;;9.70;8.80;;;;;;;25.16;70.51;100322.28;20891683;28;20317;-56
2021/07/06 23:09:35;;;;;;;10.40;9.60;;;;;;;24.83;71.56;100326.47;20891008;28;20252;-55
2021/07/06 23:19:35;;;;;;;10.67;9.77;;;;;;;24.96;70.71;100326.66;20828937;28;20228;-61
2021/07/06 23:29:36;;;;;;;10.73;9.93;;;;;;;25.17;70.01;100334.88;20806801;28;20220;-56
2021/07/06 23:39:36;;;;;;;11.53;10.63;;;;;;;24.93;71.38;100348.88;20806358;28;20553;-55
2021/07/06 23:59:48;;;;;;;11.40;10.60;;;;;;;25.04;69.72;100348.38;20545055;27;8240462;-57
